Aeroporto :
LOGIN :

Iscrizione | Disclaimer

   EN    FR    IT 

 










Sommario :    VFR   VFR Marginale   IFR   IFR Intensivo   IFR Molto Intensivo
Visibilità : 
Base nubi : 
>= 8 km
>= 3000ft
5 / 8 km
1000 / 3000 ft
1500m / 5 km
500 / 1000 ft
800 / 1500m
200 / 500 ft
< 800m
< 200 ft
Simboli :   Temporali  Nebbia  Neve Forte  Precipitazioni Forti  Vento > 20 kt
SIGMETs :   Varie  Temporali  Ghiacco  Turbolenza  Onda orograficha  Ceneri Vulcaniche







- Altitudine del aeroporto : 5600 ft
- Codice IATA : SMV


LSZS - Samedan

ULTIMO METAR :
  • 172220Z AUTO VRB01KT 9999 FEW070 08/08 Q1019

METARs OBSOLETI :
  • 172150Z AUTO 00000KT 9999 FEW050 BKN070 08/07 Q1019
  • 172120Z AUTO VRB02KT 9999 OVC050 SCT070 09/07 Q1019
  • 172050Z AUTO VRB01KT 9999 FEW050 SCT080 08/08 Q1019
  • 172020Z AUTO 05003KT 9999 BKN060 08/07 Q1019
  • 171950Z AUTO 20004KT 190V260 9999 FEW050 BKN070 09/08 Q1019

TAF AMD TAF LSZS
Valido dal 17 a 16 ore il 18 a 00 ore UTC


171608Z 1716/1724 24004KT 9999 BKN045 TX16/1716Z
PROB40
TEMPO 1716/1721 SHRA SCT045TCU
PROB40
TEMPO 1716/1720 22012G25KT TSRA SCT040CB
ATIS : +41 81 834 93 24
Nessun NOTAM noto per questo aeroporto.



MetMap, La meteo Aeronautica in un colpo d'occhio ! - Copyright ORBIFLY Dicembre 2007 - Disclaimer

ORBIFLY MET'MAP TEAM :

Programmazione e sviluppo : Alexandra Zaïnal
Concezione e sviluppo : Baudouin d'Aumeries
Co-Programmazione e sviluppo : Marc-Olivier Méhu
Supporto tecnico e logistico : Manuel Goepfert
Aiuto per la traduzione : Arnaldo La Scala

Contatto : metmap@orbifly.com




FONTI E CREDITI :

   NOAA